Hauptseite
METAR-TAF:

METAR-TAF

Flughäfen :

NATO-Flugplatz Geilenkirchen

Geilenkirchen, Deutschland

Breite: 50-57-39N, Länge: 006-2-33E, Höhe: 90 m

Beobachtung

Neuester Wetterbericht von vor 20 Stunden und 28 Minuten, um 15:50 UTC
Wind 6 kt aus Nordwest
Temperatur 24°C
Luftfeuchtigkeit 41%
Luftdruck 1019 hPa
Sichtweite 10 km oder mehr
keine Wolken unter 1500 m und keine Kumulonimbus oder Gewitterwolken

METAR: ETNG 171550Z 31006KT CAVOK 24/10 Q1019 NOSIG

Zeit: 14:18 (12:18 UTC)

Prognose

Neuester Wetterbericht von vor 22 Stunden und 18 Minuten, um 14:00 UTC
Gültige Prognose vom 17 um 15 UTC bis 18 um 06 UTC
Wind 7 kt aus Nord, Böen bis zu 15 kt
Sichtweite 10 km oder mehr
Aufgelockert bewölkt in der Höhe von 4000 ft
Übergehend zu
vom 17 um 16 UTC bis 17 um 18 UTC
Wind 4 kt aus West/Nordwest

TAF: ETNG 171400Z 1715/1806 35007G15KT 9999 SCT040 BECMG 1716/1718 29004KT

Wetterbeobachtungen und Prognosen von mehr als 4000 Flughäfen (METAR und TAF Bericht).

Die verfügbaren Stationen werden durch gelbe und rote Markierungen auf der Karte dargestellt.

Führen Sie die Maus auf sie, um den Namen der Station zu sehen.

Darauf klicken, um die Beobachtung von Wetterbeobachtungen und Prognosen zu sehen.

Um die Karte zu ändern : klicken Sie auf den grünen Tasten mit einem schwarzen Kreuz Zum Vergrößern, auf den grünen Button mit einem Gedankenstrich zu verkleinern, oder auf die grünen Pfeile für benachbarte Karten.


METAR-TAF: